Time;durP1;ratioP1;P1;durP2;ratioP2;P2;SDS_P1;SDS_P2;PMS_P1;PMS_P2;Temp;Humidity;BMP_temperature;BMP_pressure;BME280_temperature;BME280_humidity;BME280_pressure;Samples;Min_cycle;Max_cycle;Signal;HPM_P1;HPM_P2
2021/12/13 06:36:02;;;;;;;9.65;7.57;;;;;;;5.09;100.00;101471.69;5149386;23;20056;-71
2021/12/13 06:38:51;;;;;;;11.30;7.82;;;;;;;5.05;100.00;101478.56;4940581;29;20047;-72
2021/12/13 06:41:38;;;;;;;12.82;8.55;;;;;;;4.94;100.00;101476.63;4940267;29;20115;-72
2021/12/13 06:44:31;;;;;;;12.18;8.80;;;;;;;4.99;100.00;101481.03;4939799;29;20042;-71
2021/12/13 06:47:22;;;;;;;12.32;8.95;;;;;;;5.00;100.00;101488.00;4939869;29;20479;-71
2021/12/13 06:50:08;;;;;;;10.23;7.60;;;;;;;5.38;100.00;101501.59;4940365;29;20118;-72
2021/12/13 06:53:09;;;;;;;9.70;7.60;;;;;;;5.43;100.00;101497.38;4939655;29;20372;-71
2021/12/13 06:55:55;;;;;;;12.85;9.13;;;;;;;5.68;100.00;101501.19;4940133;29;20035;-72
2021/12/13 06:58:48;;;;;;;11.82;8.25;;;;;;;5.18;100.00;101509.06;4939439;29;20127;-72
2021/12/13 07:01:36;;;;;;;10.50;7.60;;;;;;;5.85;100.00;101499.72;4926718;29;20032;-72
2021/12/13 07:04:22;;;;;;;10.18;7.85;;;;;;;5.48;100.00;101506.09;4940357;29;20110;-72
2021/12/13 07:07:11;;;;;;;11.95;8.15;;;;;;;5.34;100.00;101507.59;4939648;29;20036;-72
2021/12/13 07:10:03;;;;;;;10.20;7.82;;;;;;;5.92;100.00;101506.78;4927077;29;20046;-71
2021/12/13 07:12:58;;;;;;;10.07;7.38;;;;;;;5.38;100.00;101502.47;4940086;29;20094;-72
2021/12/13 07:15:48;;;;;;;11.80;7.72;;;;;;;5.60;100.00;101515.81;4939739;29;20422;-72
2021/12/13 07:18:48;;;;;;;12.55;8.75;;;;;;;5.74;100.00;101525.56;4939636;29;20118;-71
2021/12/13 07:21:42;;;;;;;11.52;8.25;;;;;;;5.31;100.00;101528.34;4941107;29;20443;-71
2021/12/13 07:24:42;;;;;;;14.00;8.35;;;;;;;5.13;100.00;101534.09;4939889;29;20032;-72
2021/12/13 07:27:33;;;;;;;11.52;8.35;;;;;;;5.64;100.00;101546.19;4940420;29;20039;-72
2021/12/13 07:30:33;;;;;;;12.93;8.50;;;;;;;5.63;100.00;101550.53;4939829;29;20115;-71
2021/12/13 07:33:31;;;;;;;13.15;8.90;;;;;;;5.75;100.00;101547.25;4940047;29;20031;-70
2021/12/13 07:36:28;;;;;;;12.73;8.80;;;;;;;5.33;100.00;101548.31;4926587;29;20051;-71
2021/12/13 07:39:15;;;;;;;13.82;9.25;;;;;;;5.39;100.00;101552.75;4939884;29;20019;-70
2021/12/13 07:42:07;;;;;;;12.50;8.32;;;;;;;5.06;100.00;101549.53;4939169;29;20032;-72
2021/12/13 07:44:52;;;;;;;14.20;9.38;;;;;;;5.58;100.00;101546.97;4939536;29;20039;-71
2021/12/13 07:47:42;;;;;;;12.18;8.60;;;;;;;5.89;100.00;101553.53;4938444;29;20032;-71
2021/12/13 07:50:28;;;;;;;13.07;9.00;;;;;;;5.78;100.00;101549.88;4940068;29;20027;-71
2021/12/13 07:53:16;;;;;;;14.82;8.73;;;;;;;5.80;100.00;101551.66;4938594;29;20020;-72
2021/12/13 07:56:04;;;;;;;11.95;8.00;;;;;;;5.84;100.00;101550.00;4939643;29;20094;-71
2021/12/13 07:58:58;;;;;;;12.50;8.32;;;;;;;5.62;100.00;101563.50;4938827;29;20365;-71
2021/12/13 08:02:08;;;;;;;13.68;8.13;;;;;;;5.82;100.00;101569.91;4939636;29;20422;-72
2021/12/13 08:05:05;;;;;;;11.88;7.28;;;;;;;5.66;100.00;101565.31;4939743;29;20042;-72
2021/12/13 08:07:55;;;;;;;11.40;7.75;;;;;;;5.76;100.00;101568.06;4926805;29;20023;-72
2021/12/13 08:10:43;;;;;;;10.90;7.82;;;;;;;5.77;100.00;101568.91;4938874;29;20377;-72
2021/12/13 08:13:31;;;;;;;12.45;8.00;;;;;;;5.86;100.00;101585.56;4939075;29;20038;-71
2021/12/13 08:16:28;;;;;;;12.88;8.88;;;;;;;5.83;100.00;101589.88;4926013;29;20055;-72
2021/12/13 08:19:27;;;;;;;12.93;8.95;;;;;;;5.71;100.00;101580.13;4938447;29;20028;-70
2021/12/13 08:22:16;;;;;;;13.63;9.52;;;;;;;5.69;100.00;101580.91;4938586;29;20465;-72
2021/12/13 08:25:08;;;;;;;13.60;9.38;;;;;;;6.07;100.00;101579.81;4938800;29;20039;-72
2021/12/13 08:27:56;;;;;;;14.18;9.15;;;;;;;6.03;100.00;101589.28;4925439;29;20027;-72
2021/12/13 08:30:53;;;;;;;13.68;9.52;;;;;;;6.19;100.00;101590.41;4937800;29;20039;-72
2021/12/13 08:33:43;;;;;;;13.15;8.98;;;;;;;6.16;100.00;101595.56;4925703;29;20039;-71
2021/12/13 08:36:40;;;;;;;11.50;7.72;;;;;;;5.88;100.00;101590.81;4938707;29;20464;-72
2021/12/13 08:39:34;;;;;;;11.68;7.95;;;;;;;5.58;100.00;101592.91;4925178;29;20468;-71
2021/12/13 08:42:22;;;;;;;10.85;7.65;;;;;;;6.13;100.00;101592.91;4937896;29;20115;-72
2021/12/13 08:45:17;;;;;;;10.57;7.97;;;;;;;6.39;100.00;101594.16;4925330;29;20023;-71
2021/12/13 08:48:13;;;;;;;11.82;8.48;;;;;;;6.15;100.00;101596.41;4925060;29;20031;-72
2021/12/13 08:51:01;;;;;;;10.68;7.93;;;;;;;6.34;100.00;101603.63;4924280;29;20027;-71
2021/12/13 08:53:58;;;;;;;12.98;7.82;;;;;;;6.09;100.00;101604.13;4938485;29;20028;-71
2021/12/13 08:56:47;;;;;;;10.50;7.78;;;;;;;6.10;100.00;101598.09;4925571;29;20027;-71
2021/12/13 08:59:33;;;;;;;10.57;7.50;;;;;;;5.86;100.00;101600.31;4937583;29;20421;-72
2021/12/13 09:02:20;;;;;;;12.70;8.38;;;;;;;6.14;100.00;101592.94;4938111;29;20074;-71
2021/12/13 09:05:29;;;;;;;13.68;9.02;;;;;;;6.50;100.00;101588.22;4924856;29;20130;-71
2021/12/13 09:08:22;;;;;;;13.57;9.43;;;;;;;6.13;100.00;101580.78;4938150;29;20038;-71
2021/12/13 09:11:31;;;;;;;16.55;9.93;;;;;;;6.42;100.00;101586.38;4937881;29;20474;-71
2021/12/13 09:14:24;;;;;;;16.15;9.75;;;;;;;6.51;100.00;101583.91;4937125;29;20448;-71
2021/12/13 09:17:21;;;;;;;12.05;8.70;;;;;;;6.29;100.00;101572.34;4937814;29;20036;-72
2021/12/13 09:20:34;;;;;;;13.05;8.52;;;;;;;6.27;100.00;101573.16;4938447;29;20032;-72
2021/12/13 09:23:24;;;;;;;11.02;7.75;;;;;;;6.31;100.00;101577.56;4936556;29;20028;-72
2021/12/13 09:26:18;;;;;;;13.60;7.95;;;;;;;6.24;100.00;101575.72;4938201;29;20051;-71
2021/12/13 09:29:06;;;;;;;11.27;8.32;;;;;;;6.28;100.00;101582.72;4937962;29;20373;-71
2021/12/13 09:31:53;;;;;;;14.23;9.05;;;;;;;6.81;100.00;101584.25;4937160;29;20417;-71
2021/12/13 09:34:39;;;;;;;13.35;9.15;;;;;;;6.82;100.00;101575.56;4924166;29;20047;-71
2021/12/13 09:37:34;;;;;;;17.27;9.60;;;;;;;6.29;100.00;101581.84;4936428;29;20038;-71
2021/12/13 09:40:39;;;;;;;15.70;9.30;;;;;;;6.75;100.00;101577.25;4923738;29;20397;-72
2021/12/13 09:44:01;;;;;;;13.05;9.10;;;;;;;6.54;100.00;101587.41;4938872;29;20024;-72
2021/12/13 09:46:52;;;;;;;10.77;7.95;;;;;;;6.28;100.00;101580.13;4936525;29;20043;-72
2021/12/13 09:49:49;;;;;;;13.27;9.10;;;;;;;6.29;100.00;101579.25;4937429;29;20361;-72
2021/12/13 09:52:40;;;;;;;19.75;12.27;;;;;;;6.87;100.00;101580.00;4937024;29;20027;-71
2021/12/13 09:55:31;;;;;;;13.27;8.88;;;;;;;6.63;100.00;101591.88;4921935;29;20024;-71
2021/12/13 09:58:25;;;;;;;12.98;8.20;;;;;;;6.49;100.00;101596.91;4924119;29;20055;-71
2021/12/13 10:01:21;;;;;;;15.00;8.70;;;;;;;7.05;100.00;101595.84;4924184;29;20515;-71
2021/12/13 10:04:09;;;;;;;10.20;7.78;;;;;;;6.94;100.00;101586.13;4937718;29;20040;-73
2021/12/13 10:07:01;;;;;;;14.85;8.80;;;;;;;7.25;100.00;101586.50;4935920;29;20103;-71
2021/12/13 10:09:51;;;;;;;11.35;7.82;;;;;;;6.91;100.00;101592.19;4937240;29;20107;-72
2021/12/13 10:12:44;;;;;;;12.00;7.90;;;;;;;7.22;100.00;101582.97;4923641;29;20055;-72
2021/12/13 10:15:37;;;;;;;13.45;9.63;;;;;;;6.89;100.00;101577.41;4937437;29;20512;-72
2021/12/13 10:18:28;;;;;;;14.63;9.63;;;;;;;6.90;100.00;101573.94;4922959;29;20078;-72
2021/12/13 10:21:17;;;;;;;11.43;8.50;;;;;;;7.07;100.00;101562.84;4936706;29;20106;-71
2021/12/13 10:24:08;;;;;;;14.20;9.15;;;;;;;7.12;100.00;101561.13;4936517;29;20107;-71
2021/12/13 10:26:57;;;;;;;14.23;9.00;;;;;;;6.71;100.00;101569.41;4936319;29;20059;-71
2021/12/13 10:29:49;;;;;;;11.27;8.63;;;;;;;6.61;100.00;101559.72;4937009;29;20038;-72
2021/12/13 10:32:38;;;;;;;10.88;8.45;;;;;;;6.76;100.00;101554.69;4936896;29;20032;-72
2021/12/13 10:35:29;;;;;;;13.10;8.50;;;;;;;6.71;100.00;101557.22;4936687;29;20051;-71
2021/12/13 10:38:23;;;;;;;11.63;8.63;;;;;;;6.57;100.00;101558.81;4936557;29;20038;-71
2021/12/13 10:41:17;;;;;;;12.63;8.32;;;;;;;6.94;100.00;101554.88;4936543;29;20094;-72
2021/12/13 10:44:11;;;;;;;16.00;8.98;;;;;;;6.76;100.00;101563.38;4936378;29;20035;-73
2021/12/13 10:47:10;;;;;;;17.70;8.82;;;;;;;6.92;100.00;101547.06;4936668;29;20449;-72
2021/12/13 10:49:57;;;;;;;14.23;8.80;;;;;;;7.35;100.00;101553.56;4936461;29;20079;-71
2021/12/13 10:52:48;;;;;;;13.35;8.57;;;;;;;6.40;100.00;101541.25;4923158;29;20038;-73
2021/12/13 10:55:44;;;;;;;12.00;8.40;;;;;;;6.72;100.00;101534.69;4937373;29;20042;-71
2021/12/13 10:58:36;;;;;;;12.40;8.77;;;;;;;6.38;100.00;101542.97;4936184;29;20094;-71
2021/12/13 11:01:30;;;;;;;12.90;8.80;;;;;;;7.03;100.00;101535.00;4936110;29;20047;-71
2021/12/13 11:04:20;;;;;;;13.95;9.48;;;;;;;7.08;100.00;101533.31;4936337;29;20027;-72
2021/12/13 11:07:10;;;;;;;14.77;9.27;;;;;;;7.31;100.00;101541.38;4936472;29;20023;-72
2021/12/13 11:09:58;;;;;;;14.32;8.88;;;;;;;7.33;100.00;101537.03;4936813;29;20032;-71
2021/12/13 11:12:49;;;;;;;13.45;9.15;;;;;;;6.94;100.00;101539.25;4922487;29;20040;-72
2021/12/13 11:15:38;;;;;;;13.13;9.10;;;;;;;7.11;100.00;101537.72;4938127;29;20028;-72
2021/12/13 11:18:28;;;;;;;13.70;9.30;;;;;;;7.16;100.00;101536.00;4939302;29;20019;-71
2021/12/13 11:21:30;;;;;;;13.10;8.80;;;;;;;6.95;100.00;101543.63;4939973;29;20353;-72
2021/12/13 11:24:21;;;;;;;15.00;9.20;;;;;;;6.93;100.00;101541.00;4927140;29;20445;-71
2021/12/13 11:27:19;;;;;;;13.05;8.73;;;;;;;6.86;100.00;101535.69;4939915;29;20123;-72
2021/12/13 11:30:12;;;;;;;12.43;8.07;;;;;;;6.73;100.00;101539.03;4926631;29;20036;-72
2021/12/13 11:32:58;;;;;;;17.55;9.63;;;;;;;6.75;100.00;101532.97;4939538;29;20024;-71
2021/12/13 11:36:04;;;;;;;13.50;9.15;;;;;;;6.91;100.00;101531.44;4938440;29;20083;-72
2021/12/13 11:39:09;;;;;;;12.15;9.20;;;;;;;7.18;100.00;101542.97;4939670;29;20024;-72
2021/12/13 11:42:12;;;;;;;15.52;9.38;;;;;;;6.62;100.00;101545.84;4926178;29;20482;-71
2021/12/13 11:45:12;;;;;;;14.95;9.63;;;;;;;7.03;100.00;101539.38;4939561;29;20039;-71
2021/12/13 11:48:27;;;;;;;17.42;10.07;;;;;;;6.42;100.00;101537.78;4938363;29;20038;-72
2021/12/13 11:51:52;;;;;;;15.18;9.07;;;;;;;7.11;100.00;101535.09;4939785;29;20357;-72
2021/12/13 11:55:15;;;;;;;12.60;9.20;;;;;;;6.77;100.00;101528.66;4881800;29;20443;-71
2021/12/13 11:58:25;;;;;;;12.38;9.00;;;;;;;7.60;100.00;101538.09;4940188;29;20088;-72
2021/12/13 12:01:47;;;;;;;13.52;9.23;;;;;;;7.68;100.00;101539.03;4938825;29;20085;-71
2021/12/13 12:05:11;;;;;;;14.40;9.25;;;;;;;7.45;100.00;101537.13;4940131;29;20027;-71
2021/12/13 12:08:15;;;;;;;14.52;9.73;;;;;;;7.61;100.00;101529.44;4925940;29;20090;-73
2021/12/13 12:11:23;;;;;;;12.38;9.18;;;;;;;7.49;100.00;101531.06;4925663;29;20032;-71
2021/12/13 12:14:11;;;;;;;13.07;9.30;;;;;;;6.97;100.00;101529.75;4939943;29;20027;-71
2021/12/13 12:17:00;;;;;;;14.63;10.15;;;;;;;7.24;100.00;101530.00;4925019;29;20032;-71
2021/12/13 12:19:46;;;;;;;14.73;9.02;;;;;;;7.35;100.00;101538.78;4938485;29;20070;-71
2021/12/13 12:22:48;;;;;;;13.73;8.77;;;;;;;7.31;100.00;101536.16;4925624;29;20054;-71
2021/12/13 12:25:37;;;;;;;13.57;9.60;;;;;;;7.12;100.00;101539.44;4939086;29;20034;-71
2021/12/13 12:28:25;;;;;;;13.55;9.65;;;;;;;7.16;100.00;101536.84;4926014;29;20035;-70
2021/12/13 12:31:11;;;;;;;13.13;9.25;;;;;;;7.37;100.00;101536.19;4938841;29;20038;-71
2021/12/13 12:33:58;;;;;;;14.70;9.50;;;;;;;7.35;100.00;101550.97;4937791;29;20032;-72
2021/12/13 12:37:07;;;;;;;12.05;8.70;;;;;;;6.90;100.00;101551.38;4925742;29;20364;-71
2021/12/13 12:40:08;;;;;;;15.85;10.57;;;;;;;7.27;100.00;101555.22;4925332;29;20039;-72
2021/12/13 12:42:58;;;;;;;14.85;9.27;;;;;;;6.97;100.00;101549.72;4939040;28;20055;-71
2021/12/13 12:45:54;;;;;;;14.88;10.18;;;;;;;7.45;100.00;101551.06;4938556;29;20042;-71
2021/12/13 12:48:43;;;;;;;14.77;9.85;;;;;;;7.20;100.00;101554.28;4925822;29;20074;-71
2021/12/13 12:51:33;;;;;;;14.95;9.68;;;;;;;7.23;100.00;101553.47;4938948;29;20114;-72
2021/12/13 12:54:21;;;;;;;13.63;9.95;;;;;;;7.20;100.00;101554.28;4937806;29;20032;-72
2021/12/13 12:57:08;;;;;;;17.58;11.18;;;;;;;6.82;100.00;101557.34;4938186;29;20060;-72
2021/12/13 12:59:54;;;;;;;15.05;9.77;;;;;;;6.90;100.00;101553.09;4938279;29;20030;-71
2021/12/13 13:02:40;;;;;;;13.80;9.43;;;;;;;6.98;100.00;101562.75;4938131;29;20039;-71
2021/12/13 13:05:29;;;;;;;14.60;9.32;;;;;;;7.15;100.00;101562.94;4937338;29;20035;-71
2021/12/13 13:08:30;;;;;;;13.23;9.23;;;;;;;7.58;100.00;101567.66;4937685;29;20448;-71
2021/12/13 13:11:27;;;;;;;15.43;9.93;;;;;;;7.26;100.00;101569.09;4925311;29;20028;-71
2021/12/13 13:14:28;;;;;;;14.40;9.98;;;;;;;7.14;100.00;101566.38;4938185;29;20035;-72
2021/12/13 13:17:15;;;;;;;15.50;10.65;;;;;;;7.10;100.00;101575.91;4937921;29;20129;-71
2021/12/13 13:20:08;;;;;;;15.52;10.63;;;;;;;7.26;100.00;101572.59;4936841;29;20042;-72
2021/12/13 13:22:56;;;;;;;23.25;11.23;;;;;;;7.40;100.00;101572.72;4923263;29;20023;-72
2021/12/13 13:25:46;;;;;;;19.15;11.32;;;;;;;7.48;100.00;101565.84;4924481;29;20465;-72
2021/12/13 13:28:48;;;;;;;15.75;10.68;;;;;;;7.41;100.00;101569.25;4924705;29;20461;-72
2021/12/13 13:31:37;;;;;;;14.40;10.38;;;;;;;7.18;100.00;101565.53;4924542;29;20465;-71
2021/12/13 13:34:31;;;;;;;15.95;10.40;;;;;;;7.34;100.00;101567.44;4938020;29;20070;-72
2021/12/13 13:37:32;;;;;;;13.73;9.70;;;;;;;7.39;100.00;101577.06;4937283;29;20342;-72
2021/12/13 13:40:24;;;;;;;16.25;9.80;;;;;;;6.94;100.00;101576.59;4924184;29;20094;-72
2021/12/13 13:43:12;;;;;;;14.32;9.80;;;;;;;7.28;100.00;101583.03;4937537;29;20019;-72
2021/12/13 13:45:59;;;;;;;16.05;10.52;;;;;;;6.98;100.00;101587.91;4937675;29;20032;-72
2021/12/13 13:48:45;;;;;;;14.25;9.55;;;;;;;7.30;100.00;101589.13;4937191;29;20457;-71
2021/12/13 13:51:33;;;;;;;14.75;10.18;;;;;;;7.32;100.00;101596.09;4938118;29;20031;-71
2021/12/13 13:54:19;;;;;;;14.75;9.98;;;;;;;7.14;100.00;101595.94;4936857;29;20457;-71
2021/12/13 13:57:12;;;;;;;16.98;10.43;;;;;;;7.54;100.00;101602.38;4936177;29;20039;-71
2021/12/13 13:59:59;;;;;;;15.88;9.73;;;;;;;7.22;100.00;101598.59;4936811;29;20019;-72
2021/12/13 14:02:46;;;;;;;15.68;11.07;;;;;;;7.19;100.00;101598.59;4937406;29;20106;-72
2021/12/13 14:05:37;;;;;;;13.45;9.60;;;;;;;7.07;100.00;101606.28;4937313;29;20523;-73
2021/12/13 14:08:26;;;;;;;17.45;10.93;;;;;;;6.94;100.00;101607.88;4924427;29;20359;-71
2021/12/13 14:11:15;;;;;;;16.40;9.80;;;;;;;7.39;100.00;101603.13;4937156;29;20032;-71
2021/12/13 14:14:03;;;;;;;16.50;10.85;;;;;;;7.29;100.00;101616.06;4937213;29;20035;-71
2021/12/13 14:16:57;;;;;;;16.80;11.77;;;;;;;7.62;100.00;101617.25;4936973;29;20031;-71
2021/12/13 14:19:49;;;;;;;17.20;11.43;;;;;;;6.92;100.00;101613.91;4936964;29;20492;-71
2021/12/13 14:22:35;;;;;;;17.83;11.75;;;;;;;6.99;100.00;101619.19;4936104;29;20031;-71
2021/12/13 14:25:38;;;;;;;17.08;11.75;;;;;;;7.12;100.00;101622.81;4935797;29;20034;-71
2021/12/13 14:28:33;;;;;;;17.85;11.50;;;;;;;6.87;100.00;101624.25;4936375;29;20111;-72
2021/12/13 14:31:35;;;;;;;18.35;11.65;;;;;;;6.87;100.00;101620.81;4935281;29;20035;-72
2021/12/13 14:34:24;;;;;;;17.30;10.80;;;;;;;6.83;100.00;101634.66;4935325;29;20063;-71
2021/12/13 14:37:15;;;;;;;16.15;11.60;;;;;;;7.20;100.00;101629.00;4936204;29;20067;-71
2021/12/13 14:40:02;;;;;;;15.68;11.30;;;;;;;7.29;100.00;101635.19;4936567;29;20107;-71
2021/12/13 14:42:47;;;;;;;19.20;12.38;;;;;;;7.12;100.00;101630.66;4924054;29;20365;-71
2021/12/13 14:45:33;;;;;;;18.45;12.23;;;;;;;7.10;100.00;101641.03;4923116;29;20053;-72
2021/12/13 14:48:24;;;;;;;16.90;11.52;;;;;;;7.19;100.00;101635.06;4935641;29;20055;-72
2021/12/13 14:51:14;;;;;;;17.40;11.85;;;;;;;7.38;100.00;101645.69;4940045;29;20032;-71
2021/12/13 14:54:00;;;;;;;18.85;12.38;;;;;;;7.33;100.00;101643.91;4939026;29;20062;-72
2021/12/13 14:56:58;;;;;;;17.35;11.63;;;;;;;7.47;100.00;101637.97;4940472;29;20071;-74
2021/12/13 14:59:54;;;;;;;16.63;11.57;;;;;;;7.57;100.00;101644.13;4940296;29;20030;-71
2021/12/13 15:02:46;;;;;;;16.52;11.57;;;;;;;7.43;100.00;101640.53;4940149;29;20031;-71
2021/12/13 15:05:37;;;;;;;15.10;11.10;;;;;;;7.05;100.00;101636.63;4940206;29;20023;-72
2021/12/13 15:08:25;;;;;;;16.65;10.98;;;;;;;7.39;100.00;101643.97;4940313;29;20031;-71
2021/12/13 15:11:16;;;;;;;15.40;10.98;;;;;;;7.39;100.00;101636.16;4926418;29;20676;-72
2021/12/13 15:14:07;;;;;;;16.35;11.38;;;;;;;7.61;100.00;101644.19;4938995;29;20063;-72
2021/12/13 15:17:00;;;;;;;15.95;10.82;;;;;;;7.21;100.00;101638.56;4940079;29;20032;-72
2021/12/13 15:19:51;;;;;;;19.17;11.60;;;;;;;7.51;100.00;101644.94;4941024;29;20020;-72
2021/12/13 15:22:49;;;;;;;14.80;10.63;;;;;;;7.09;100.00;101639.31;4939998;29;20027;-72
2021/12/13 15:25:44;;;;;;;18.52;10.55;;;;;;;7.00;100.00;101647.03;4938989;29;20032;-73
2021/12/13 15:28:35;;;;;;;17.17;10.88;;;;;;;7.42;100.00;101644.88;4926868;29;20031;-71
2021/12/13 15:31:52;;;;;;;19.05;11.60;;;;;;;7.71;100.00;101658.16;4926308;29;20042;-71
2021/12/13 15:35:00;;;;;;;16.23;11.18;;;;;;;7.63;100.00;101655.50;4935829;29;20054;-72
2021/12/13 15:37:50;;;;;;;20.02;13.05;;;;;;;7.65;100.00;101661.63;4939867;29;20058;-72
2021/12/13 15:40:40;;;;;;;18.48;11.55;;;;;;;7.49;100.00;101669.25;4938670;29;20043;-71
2021/12/13 15:43:30;;;;;;;18.27;12.05;;;;;;;7.47;100.00;101666.63;4939680;29;20449;-72
2021/12/13 15:46:23;;;;;;;18.63;12.63;;;;;;;7.69;100.00;101671.22;4926350;29;20475;-71
2021/12/13 15:52:22;;;;;;;19.35;12.52;;;;;;;7.48;100.00;101680.56;4940221;29;20064;-72
2021/12/13 15:55:07;;;;;;;18.85;11.82;;;;;;;7.01;100.00;101679.13;4939206;29;20368;-72
2021/12/13 15:57:53;;;;;;;18.25;12.38;;;;;;;7.33;100.00;101678.66;4937853;29;20030;-71
2021/12/13 16:00:39;;;;;;;18.38;12.75;;;;;;;7.58;100.00;101671.97;4937653;29;20032;-72
2021/12/13 16:03:26;;;;;;;17.58;12.20;;;;;;;7.64;100.00;101669.44;4939841;29;20042;-71
2021/12/13 16:06:12;;;;;;;16.77;11.38;;;;;;;7.60;100.00;101671.09;4938486;29;20457;-71
2021/12/13 16:09:02;;;;;;;15.02;10.77;;;;;;;7.43;100.00;101675.28;4926288;29;20035;-71
2021/12/13 16:11:52;;;;;;;16.92;11.88;;;;;;;7.37;100.00;101682.16;4938212;29;20031;-72
2021/12/13 16:14:46;;;;;;;16.98;11.25;;;;;;;7.44;100.00;101673.56;4938724;29;20448;-71
2021/12/13 16:17:38;;;;;;;16.40;11.18;;;;;;;7.55;100.00;101672.81;4939100;29;20098;-72
2021/12/13 16:20:30;;;;;;;18.38;12.15;;;;;;;7.64;100.00;101677.25;4938112;29;20102;-72
2021/12/13 16:23:25;;;;;;;15.90;11.15;;;;;;;7.81;100.00;101683.50;4925750;29;20075;-71
2021/12/13 16:26:12;;;;;;;20.42;12.68;;;;;;;7.64;100.00;101687.69;4939046;29;20039;-71
2021/12/13 16:28:58;;;;;;;17.10;12.35;;;;;;;7.65;100.00;101677.25;4923726;29;20114;-72
2021/12/13 16:31:45;;;;;;;20.33;12.70;;;;;;;7.75;100.00;101681.69;4939075;29;20059;-71
2021/12/13 16:34:30;;;;;;;21.20;12.60;;;;;;;7.70;100.00;101685.13;4938839;29;20051;-71
2021/12/13 16:37:16;;;;;;;18.73;13.48;;;;;;;7.69;100.00;101685.97;4937377;29;20039;-71
2021/12/13 16:40:05;;;;;;;23.23;13.52;;;;;;;7.63;100.00;101685.94;4938763;29;20114;-70
2021/12/13 16:42:57;;;;;;;20.52;13.43;;;;;;;7.71;100.00;101686.84;4924630;29;20023;-73
2021/12/13 16:45:48;;;;;;;21.23;14.52;;;;;;;7.70;100.00;101682.50;4926103;29;20023;-71
2021/12/13 16:48:37;;;;;;;21.95;14.57;;;;;;;7.36;100.00;101685.66;4938060;29;20027;-72
2021/12/13 16:51:29;;;;;;;21.15;13.80;;;;;;;7.65;100.00;101686.81;4924062;29;20031;-71
2021/12/13 16:54:26;;;;;;;22.23;14.30;;;;;;;7.88;100.00;101693.13;4938550;29;20415;-72
2021/12/13 16:57:12;;;;;;;21.90;13.88;;;;;;;7.57;100.00;101691.97;4924953;29;20106;-72
2021/12/13 17:00:02;;;;;;;22.25;14.15;;;;;;;7.78;100.00;101694.78;4938755;28;20456;-71
2021/12/13 17:02:48;;;;;;;20.52;13.45;;;;;;;7.69;100.00;101689.47;4925201;29;20035;-72
2021/12/13 17:06:00;;;;;;;19.35;12.57;;;;;;;7.86;100.00;101694.84;4923632;29;20032;-71
2021/12/13 17:08:57;;;;;;;19.63;13.23;;;;;;;7.96;100.00;101702.75;4924200;29;20038;-71
2021/12/13 17:11:44;;;;;;;20.33;13.00;;;;;;;7.54;100.00;101697.13;4937205;29;20073;-72
2021/12/13 17:14:30;;;;;;;19.17;13.45;;;;;;;7.85;100.00;101704.41;4938071;29;20114;-72
2021/12/13 17:17:17;;;;;;;19.85;12.90;;;;;;;7.59;100.00;101708.47;4937310;29;20028;-71
2021/12/13 17:20:18;;;;;;;21.15;13.35;;;;;;;7.97;100.00;101709.75;4937309;29;20361;-72
2021/12/13 17:23:23;;;;;;;19.67;13.07;;;;;;;7.83;100.00;101708.72;4926472;29;20036;-71
2021/12/13 17:26:44;;;;;;;21.02;13.25;;;;;;;7.83;100.00;101713.06;4937711;29;20035;-71
2021/12/13 17:29:42;;;;;;;20.48;13.50;;;;;;;7.56;100.00;101712.81;4936219;29;20032;-72
2021/12/13 17:32:35;;;;;;;22.08;13.77;;;;;;;7.79;100.00;101722.59;4935901;29;20057;-71
2021/12/13 17:35:25;;;;;;;17.90;12.07;;;;;;;7.64;100.00;101709.41;4937279;29;20074;-73
2021/12/13 17:38:18;;;;;;;19.73;13.13;;;;;;;7.58;100.00;101718.91;4936898;29;20524;-71
2021/12/13 17:41:09;;;;;;;20.13;12.52;;;;;;;7.98;100.00;101714.09;4937400;29;20095;-72
2021/12/13 17:43:54;;;;;;;20.10;13.68;;;;;;;7.86;100.00;101715.69;4937921;29;20031;-71
2021/12/13 17:46:45;;;;;;;20.02;13.73;;;;;;;7.70;100.00;101708.59;4936561;29;20028;-73
2021/12/13 17:49:58;;;;;;;21.13;13.20;;;;;;;7.79;100.00;101704.34;4936873;29;20039;-71
2021/12/13 17:53:05;;;;;;;23.25;15.32;;;;;;;7.80;100.00;101711.28;4937213;29;20051;-71
2021/12/13 17:56:00;;;;;;;21.77;14.60;;;;;;;7.68;100.00;101707.72;4937716;29;20032;-72
2021/12/13 17:58:57;;;;;;;27.88;15.82;;;;;;;7.83;100.00;101707.84;4937814;29;20035;-72
2021/12/13 18:01:48;;;;;;;23.92;14.60;;;;;;;7.89;100.00;101710.53;4937107;29;20050;-71
2021/12/13 18:04:52;;;;;;;21.90;14.40;;;;;;;7.74;100.00;101715.59;4937306;29;20364;-71
2021/12/13 18:07:43;;;;;;;20.10;13.90;;;;;;;7.92;100.00;101715.78;4937328;29;20035;-71
2021/12/13 18:10:30;;;;;;;23.40;14.85;;;;;;;7.61;100.00;101719.81;4936287;29;20361;-73
2021/12/13 18:13:20;;;;;;;24.13;15.07;;;;;;;7.76;100.00;101726.94;4936063;29;20024;-71
2021/12/13 18:16:06;;;;;;;24.33;16.85;;;;;;;7.73;100.00;101730.38;4937087;29;20102;-71
2021/12/13 18:18:53;;;;;;;22.98;16.13;;;;;;;8.05;100.00;101734.16;4936025;29;20032;-71
2021/12/13 18:21:39;;;;;;;24.42;16.52;;;;;;;8.13;100.00;101732.50;4936262;29;20095;-72
2021/12/13 18:24:25;;;;;;;25.25;16.58;;;;;;;7.95;100.00;101737.53;4936102;29;20098;-71
2021/12/13 18:27:11;;;;;;;24.20;16.88;;;;;;;7.96;100.00;101739.28;4922077;29;20457;-72
2021/12/13 18:30:14;;;;;;;26.00;16.85;;;;;;;7.59;100.00;101752.81;4923526;29;20028;-72
2021/12/13 18:33:03;;;;;;;26.65;17.27;;;;;;;7.40;100.00;101753.47;4935846;29;20111;-71
2021/12/13 18:35:53;;;;;;;31.38;17.48;;;;;;;7.66;100.00;101749.44;4936611;29;20517;-72
2021/12/13 18:39:08;;;;;;;24.58;17.35;;;;;;;7.80;100.00;101753.03;4937054;29;20059;-72
2021/12/13 18:42:05;;;;;;;25.25;17.13;;;;;;;7.70;100.00;101747.72;4937651;29;20464;-71
2021/12/13 18:45:12;;;;;;;24.13;15.95;;;;;;;8.13;100.00;101742.94;4935860;29;20044;-71
2021/12/13 18:48:12;;;;;;;22.27;15.30;;;;;;;8.11;100.00;101744.66;4936382;29;20032;-71
2021/12/13 18:51:04;;;;;;;23.25;15.65;;;;;;;8.01;100.00;101755.00;4936269;29;20043;-73
2021/12/13 18:54:01;;;;;;;24.20;15.82;;;;;;;7.82;100.00;101766.09;4936744;29;20464;-71
2021/12/13 18:56:47;;;;;;;21.88;14.95;;;;;;;7.90;100.00;101762.72;4936564;29;20373;-72
2021/12/13 18:59:33;;;;;;;26.23;15.93;;;;;;;8.28;100.00;101755.28;4936142;29;20110;-71
2021/12/13 19:02:30;;;;;;;22.63;15.35;;;;;;;7.93;100.00;101761.88;4936990;29;20036;-72
2021/12/13 19:05:31;;;;;;;24.48;16.42;;;;;;;7.75;100.00;101754.72;4937198;29;20429;-72
2021/12/13 19:08:20;;;;;;;24.70;16.90;;;;;;;7.90;100.00;101757.50;4937055;29;20028;-71
2021/12/13 19:11:12;;;;;;;23.70;16.10;;;;;;;7.74;100.00;101757.31;4923020;29;20119;-71
2021/12/13 19:13:58;;;;;;;24.38;16.23;;;;;;;7.78;100.00;101756.50;4936184;29;20027;-72
2021/12/13 19:16:50;;;;;;;22.23;16.02;;;;;;;7.70;100.00;101752.94;4936796;29;20042;-72
2021/12/13 19:19:46;;;;;;;25.67;16.92;;;;;;;7.61;100.00;101751.13;4923207;29;20090;-71
2021/12/13 19:22:36;;;;;;;24.33;15.32;;;;;;;7.90;100.00;101743.56;4937881;29;20487;-72
2021/12/13 19:25:22;;;;;;;26.02;16.38;;;;;;;7.72;100.00;101744.25;4935735;29;20028;-72
2021/12/13 19:28:14;;;;;;;25.00;16.00;;;;;;;7.73;100.00;101750.34;4937034;29;20046;-71
2021/12/13 19:31:13;;;;;;;23.20;15.55;;;;;;;7.71;100.00;101752.94;4936388;29;20034;-72
2021/12/13 19:34:28;;;;;;;26.13;17.27;;;;;;;7.31;100.00;101755.09;4923074;29;20120;-72
2021/12/13 19:37:20;;;;;;;26.67;16.98;;;;;;;7.36;100.00;101763.84;4925705;29;20035;-72
2021/12/13 19:40:26;;;;;;;24.40;16.40;;;;;;;7.11;100.00;101767.88;4940451;29;20016;-72
2021/12/13 19:43:16;;;;;;;27.75;19.20;;;;;;;7.05;100.00;101767.81;4939711;29;20028;-72
2021/12/13 19:46:04;;;;;;;28.67;18.60;;;;;;;6.68;100.00;101768.13;4926560;29;20500;-72
2021/12/13 19:48:55;;;;;;;28.13;18.77;;;;;;;7.34;100.00;101765.53;4939563;29;20416;-72
2021/12/13 19:51:55;;;;;;;28.67;18.33;;;;;;;7.69;100.00;101764.22;4926835;29;20098;-71